createdAt,value
2022-11-08T00:02:21.680Z,2.22
2022-11-08T00:04:48.434Z,1.95
2022-11-08T00:07:33.638Z,1.63
2022-11-08T00:10:18.746Z,1.85
2022-11-08T00:13:04.240Z,2.00
2022-11-08T00:15:34.610Z,2.03
2022-11-08T00:18:01.300Z,1.80
2022-11-08T00:20:27.818Z,2.38
2022-11-08T00:22:54.354Z,1.77
2022-11-08T00:25:20.905Z,2.10
2022-11-08T00:27:47.444Z,1.92
2022-11-08T00:30:14.076Z,1.70
2022-11-08T00:32:40.744Z,2.42
2022-11-08T00:35:07.848Z,1.90
2022-11-08T00:37:34.409Z,1.77
2022-11-08T00:40:00.949Z,2.28
2022-11-08T00:42:27.496Z,2.10
2022-11-08T00:44:54.009Z,2.00
2022-11-08T00:47:20.565Z,1.67
2022-11-08T00:49:47.094Z,2.10
2022-11-08T00:52:13.644Z,1.70
2022-11-08T00:54:40.162Z,1.95
2022-11-08T00:57:06.679Z,1.98
2022-11-08T00:59:33.202Z,2.00
2022-11-08T01:01:59.848Z,1.75
2022-11-08T01:04:26.501Z,2.08
2022-11-08T01:06:53.056Z,2.50
2022-11-08T01:09:19.639Z,2.45
2022-11-08T01:11:47.833Z,2.25
2022-11-08T01:14:15.068Z,2.22
2022-11-08T01:16:42.222Z,1.67
2022-11-08T01:19:09.421Z,2.30
2022-11-08T01:21:36.748Z,1.55
2022-11-08T01:24:03.493Z,2.63
2022-11-08T01:26:30.329Z,2.00
2022-11-08T01:28:57.784Z,2.05
2022-11-08T01:31:27.922Z,2.25
2022-11-08T01:33:55.146Z,2.20
2022-11-08T01:36:23.744Z,1.80
2022-11-08T01:38:51.062Z,2.10
2022-11-08T01:41:20.639Z,2.22
2022-11-08T01:46:34.087Z,2.25
2022-11-08T01:49:15.463Z,2.00
2022-11-08T01:51:56.441Z,2.28
2022-11-08T01:54:35.264Z,2.20
2022-11-08T01:57:05.189Z,2.22
2022-11-08T01:59:33.970Z,2.42
2022-11-08T02:02:01.067Z,2.03
2022-11-08T02:04:27.730Z,2.67
2022-11-08T02:06:54.934Z,2.10
2022-11-08T02:09:21.545Z,2.45
2022-11-08T02:11:49.034Z,2.85
2022-11-08T02:14:17.827Z,2.00
2022-11-08T02:16:44.506Z,2.17
2022-11-08T02:19:19.939Z,2.30
2022-11-08T02:21:53.633Z,2.47
2022-11-08T02:24:20.230Z,2.05
2022-11-08T02:26:47.276Z,1.98
2022-11-08T02:29:33.679Z,1.85
2022-11-08T02:32:01.821Z,2.72
2022-11-08T02:34:54.747Z,2.17
2022-11-08T02:37:23.744Z,2.75
2022-11-08T02:39:50.449Z,2.00
2022-11-08T02:42:19.568Z,1.92
2022-11-08T02:44:46.900Z,2.20
2022-11-08T02:47:13.645Z,2.08
2022-11-08T02:49:40.574Z,1.90
2022-11-08T02:52:07.368Z,1.73
2022-11-08T02:54:34.640Z,2.25
2022-11-08T02:57:01.199Z,1.95
2022-11-08T02:59:27.934Z,2.40
2022-11-08T03:01:54.653Z,1.88
2022-11-08T03:04:21.302Z,1.65
2022-11-08T03:06:47.969Z,2.05
2022-11-08T03:09:14.633Z,1.90
2022-11-08T03:11:41.474Z,2.08
2022-11-08T03:14:08.382Z,2.10
2022-11-08T03:16:34.940Z,2.33
2022-11-08T03:19:01.532Z,1.90
2022-11-08T03:21:28.315Z,2.05
2022-11-08T03:23:54.928Z,1.85
2022-11-08T03:26:21.465Z,2.10
2022-11-08T03:28:48.025Z,1.83
2022-11-08T03:31:14.590Z,2.25
2022-11-08T03:33:41.100Z,1.85
2022-11-08T03:36:08.005Z,2.42
2022-11-08T03:38:34.524Z,2.40
2022-11-08T03:41:01.063Z,1.88
2022-11-08T03:43:27.764Z,1.90
2022-11-08T03:45:54.386Z,2.13
2022-11-08T03:48:23.416Z,2.08
2022-11-08T03:50:51.793Z,1.80
2022-11-08T03:53:18.649Z,2.17
2022-11-08T03:55:45.280Z,2.22
2022-11-08T03:58:12.228Z,1.80
2022-11-08T04:00:39.126Z,2.38
2022-11-08T04:03:05.863Z,2.00
2022-11-08T04:05:32.730Z,1.60
2022-11-08T04:08:01.156Z,1.98
2022-11-08T04:10:27.860Z,1.75
2022-11-08T04:13:12.927Z,1.90
2022-11-08T04:15:39.615Z,1.80
2022-11-08T04:18:35.352Z,2.05
2022-11-08T04:21:19.941Z,1.83
2022-11-08T04:23:48.400Z,1.67
2022-11-08T04:26:15.533Z,1.90
2022-11-08T04:28:42.586Z,1.92
2022-11-08T04:31:18.303Z,1.45
2022-11-08T04:33:45.123Z,1.50
2022-11-08T04:36:14.219Z,2.20
2022-11-08T04:38:41.059Z,2.00
2022-11-08T04:41:12.417Z,1.98
2022-11-08T04:43:39.060Z,1.77
2022-11-08T04:46:08.222Z,1.80
2022-11-08T04:48:35.433Z,2.28
2022-11-08T04:51:04.650Z,1.67
2022-11-08T04:53:31.503Z,1.90
2022-11-08T04:56:19.725Z,1.35
2022-11-08T04:58:49.171Z,1.80
2022-11-08T05:01:18.640Z,1.95
2022-11-08T05:03:47.281Z,1.80
2022-11-08T05:06:16.568Z,1.70
2022-11-08T05:08:43.307Z,1.50
2022-11-08T05:11:12.287Z,1.85
2022-11-08T05:13:39.226Z,1.60
2022-11-08T05:16:08.897Z,1.52
2022-11-08T05:21:21.168Z,1.73
2022-11-08T05:23:49.623Z,1.77
2022-11-08T05:26:18.093Z,1.77
2022-11-08T05:28:44.808Z,2.00
2022-11-08T05:31:11.865Z,1.63
2022-11-08T05:33:38.471Z,2.05
2022-11-08T05:36:11.901Z,2.08
2022-11-08T05:38:39.615Z,2.00
2022-11-08T05:41:08.805Z,2.13
2022-11-08T05:43:35.325Z,2.53
2022-11-08T05:46:01.996Z,1.88
2022-11-08T05:48:28.661Z,2.25
2022-11-08T05:50:55.280Z,2.03
2022-11-08T05:53:22.366Z,2.35
2022-11-08T05:55:49.179Z,2.40
2022-11-08T05:58:16.653Z,1.90
2022-11-08T06:00:43.241Z,1.77
2022-11-08T06:03:10.104Z,1.77
2022-11-08T06:05:36.821Z,2.08
2022-11-08T06:08:03.579Z,2.40
2022-11-08T06:10:30.215Z,2.42
2022-11-08T06:13:03.333Z,2.22
2022-11-08T06:15:29.938Z,2.10
2022-11-08T06:17:56.434Z,2.08
2022-11-08T06:20:23.134Z,1.88
2022-11-08T06:22:49.711Z,1.90
2022-11-08T06:25:16.403Z,1.80
2022-11-08T06:27:43.037Z,1.67
2022-11-08T06:30:09.944Z,1.90
2022-11-08T06:32:36.504Z,1.77
2022-11-08T06:35:03.237Z,2.45
2022-11-08T06:37:29.869Z,2.20
2022-11-08T06:39:56.407Z,2.35
2022-11-08T06:42:22.926Z,2.30
2022-11-08T06:44:49.470Z,2.55
2022-11-08T06:47:16.085Z,2.53
2022-11-08T06:49:42.672Z,2.45
2022-11-08T06:52:09.315Z,2.50
2022-11-08T06:54:35.875Z,2.55
2022-11-08T06:57:02.510Z,2.42
2022-11-08T06:59:29.282Z,2.47
2022-11-08T07:01:56.821Z,2.95
2022-11-08T07:04:23.740Z,2.65
2022-11-08T07:06:50.475Z,2.20
2022-11-08T07:09:17.161Z,2.58
2022-11-08T07:11:43.740Z,2.50
2022-11-08T07:14:10.295Z,2.80
2022-11-08T07:16:36.883Z,3.10
2022-11-08T07:19:03.618Z,2.80
2022-11-08T07:21:30.158Z,2.70
2022-11-08T07:23:56.688Z,2.90
2022-11-08T07:26:23.249Z,3.17
2022-11-08T07:28:49.771Z,3.38
2022-11-08T07:31:16.539Z,3.17
2022-11-08T07:33:43.101Z,3.55
2022-11-08T07:36:09.677Z,3.05
2022-11-08T07:38:36.197Z,3.30
2022-11-08T07:41:02.824Z,3.05
2022-11-08T07:43:29.950Z,3.70
2022-11-08T07:46:03.182Z,3.15
2022-11-08T07:48:31.315Z,3.85
2022-11-08T07:50:57.918Z,3.85
2022-11-08T07:53:24.830Z,2.83
2022-11-08T07:55:51.513Z,3.38
2022-11-08T07:58:18.057Z,2.78
2022-11-08T08:00:45.451Z,3.85
2022-11-08T08:03:14.248Z,3.20
2022-11-08T08:05:43.925Z,3.03
2022-11-08T08:10:38.579Z,3.10
2022-11-08T08:13:06.277Z,3.13
2022-11-08T08:15:33.267Z,2.85
2022-11-08T08:18:01.778Z,3.30
2022-11-08T08:20:29.285Z,3.17
2022-11-08T08:22:55.946Z,2.85
2022-11-08T08:25:22.864Z,3.10
2022-11-08T08:27:54.629Z,3.20
2022-11-08T08:30:22.577Z,3.08
2022-11-08T08:33:02.256Z,3.08
2022-11-08T08:35:36.211Z,2.22
2022-11-08T08:38:04.329Z,2.50
2022-11-08T08:40:31.310Z,2.95
2022-11-08T08:42:59.590Z,2.63
2022-11-08T08:45:27.007Z,2.38
2022-11-08T08:47:55.547Z,3.22
2022-11-08T08:50:22.695Z,2.10
2022-11-08T08:52:49.637Z,1.92
2022-11-08T08:55:16.581Z,2.70
2022-11-08T08:57:46.780Z,2.30
2022-11-08T09:03:07.583Z,2.00
2022-11-08T09:05:35.153Z,1.60
2022-11-08T09:08:02.125Z,1.73
2022-11-08T09:10:29.033Z,1.88
2022-11-08T09:12:55.793Z,1.90
2022-11-08T09:15:22.710Z,1.83
2022-11-08T09:17:49.311Z,1.40
2022-11-08T09:20:16.109Z,1.50
2022-11-08T09:22:42.830Z,1.60
2022-11-08T09:25:10.438Z,1.30
2022-11-08T09:27:37.034Z,1.45
2022-11-08T09:30:04.683Z,1.60
2022-11-08T09:32:46.578Z,1.38
2022-11-08T09:35:19.249Z,1.55
2022-11-08T09:37:49.622Z,1.60
2022-11-08T09:40:39.682Z,2.00
2022-11-08T09:43:36.377Z,1.38
2022-11-08T09:46:02.954Z,1.08
2022-11-08T09:48:37.388Z,1.20
2022-11-08T09:51:10.056Z,1.13
2022-11-08T09:53:59.171Z,1.17
2022-11-08T09:56:35.654Z,1.20
2022-11-08T09:59:27.120Z,1.10
2022-11-08T10:01:53.771Z,1.15
2022-11-08T10:04:24.355Z,0.95
2022-11-08T10:07:19.459Z,1.20
2022-11-08T10:10:04.847Z,1.13
2022-11-08T10:12:46.713Z,1.40
2022-11-08T10:15:31.615Z,1.20
2022-11-08T10:18:22.639Z,1.00
2022-11-08T10:21:10.916Z,0.95
2022-11-08T10:23:44.977Z,0.85
2022-11-08T10:26:20.539Z,0.80
2022-11-08T10:29:02.034Z,1.05
2022-11-08T10:31:33.610Z,1.20
2022-11-08T10:34:01.927Z,1.13
2022-11-08T10:36:42.113Z,0.95
2022-11-08T10:39:11.549Z,0.93
2022-11-08T10:41:55.748Z,1.33
2022-11-08T10:44:24.525Z,1.00
2022-11-08T10:46:57.061Z,0.93
2022-11-08T10:49:27.702Z,1.35
2022-11-08T10:52:22.865Z,1.10
2022-11-08T10:54:56.509Z,1.02
2022-11-08T10:57:27.618Z,1.02
2022-11-08T10:59:55.684Z,1.10
2022-11-08T11:02:43.072Z,1.00
2022-11-08T11:05:15.507Z,1.30
2022-11-08T11:07:45.922Z,1.10
2022-11-08T11:10:23.954Z,1.00
2022-11-08T11:13:01.125Z,0.80
2022-11-08T11:15:39.553Z,1.00
2022-11-08T11:18:28.182Z,1.60
2022-11-08T11:21:04.351Z,1.00
2022-11-08T11:24:06.059Z,0.90
2022-11-08T11:26:35.233Z,1.15
2022-11-08T11:29:07.052Z,0.93
2022-11-08T11:31:38.620Z,1.00
2022-11-08T11:34:50.195Z,0.98
2022-11-08T11:37:27.834Z,0.90
2022-11-08T11:40:03.825Z,1.13
2022-11-08T11:42:49.900Z,1.13
2022-11-08T11:45:35.297Z,0.93
2022-11-08T11:48:10.470Z,0.93
2022-11-08T11:50:44.371Z,0.80
2022-11-08T11:53:32.912Z,1.00
2022-11-08T11:56:30.541Z,1.30
2022-11-08T11:59:07.112Z,0.95
2022-11-08T12:01:58.522Z,1.48
2022-11-08T12:04:55.313Z,1.17
2022-11-08T12:07:26.009Z,1.23
2022-11-08T12:10:23.797Z,1.00
2022-11-08T12:13:02.569Z,1.10
2022-11-08T12:15:37.678Z,1.13
2022-11-08T12:18:10.480Z,1.30
2022-11-08T12:21:12.108Z,1.23
2022-11-08T12:24:08.249Z,1.10
2022-11-08T12:26:45.906Z,1.13
2022-11-08T12:29:21.545Z,1.05
2022-11-08T12:31:50.985Z,1.25
2022-11-08T12:36:57.876Z,1.10
2022-11-08T12:39:36.440Z,1.17
2022-11-08T12:42:11.983Z,1.00
2022-11-08T12:44:53.564Z,1.30
2022-11-08T12:47:32.361Z,1.30
2022-11-08T12:50:37.892Z,1.17
2022-11-08T12:53:04.352Z,1.30
2022-11-08T12:55:34.521Z,1.15
2022-11-08T12:58:09.013Z,1.30
2022-11-08T13:00:39.011Z,1.67
2022-11-08T13:03:11.618Z,1.63
2022-11-08T13:05:46.136Z,1.30
2022-11-08T13:08:12.730Z,1.10
2022-11-08T13:10:50.703Z,1.02
2022-11-08T13:13:38.712Z,1.15
2022-11-08T13:16:14.642Z,1.23
2022-11-08T13:18:44.418Z,1.13
2022-11-08T13:24:42.264Z,1.00
2022-11-08T13:27:21.392Z,1.00
2022-11-08T13:29:48.097Z,1.17
2022-11-08T13:32:26.909Z,1.60
2022-11-08T13:35:07.279Z,0.80
2022-11-08T13:37:47.166Z,1.40
2022-11-08T13:40:16.489Z,1.40
2022-11-08T13:42:42.949Z,1.73
2022-11-08T13:45:31.271Z,1.10
2022-11-08T13:48:03.663Z,1.13
2022-11-08T13:50:34.048Z,1.23
2022-11-08T13:53:44.468Z,1.50
2022-11-08T13:56:11.003Z,1.33
2022-11-08T13:58:40.361Z,1.13
2022-11-08T14:01:19.403Z,1.30
2022-11-08T14:06:29.009Z,1.25
2022-11-08T14:09:18.758Z,1.25
2022-11-08T14:11:48.603Z,1.48
2022-11-08T14:14:22.976Z,1.40
2022-11-08T14:17:03.725Z,1.73
2022-11-08T14:19:34.986Z,1.50
2022-11-08T14:22:04.981Z,1.63
2022-11-08T14:24:36.728Z,1.50
2022-11-08T14:27:03.819Z,1.45
2022-11-08T14:29:30.519Z,2.38
2022-11-08T14:32:05.409Z,1.35
2022-11-08T14:34:37.856Z,1.60
2022-11-08T14:37:11.280Z,1.40
2022-11-08T14:39:37.907Z,1.20
2022-11-08T14:42:16.133Z,1.20
2022-11-08T14:44:43.735Z,1.40
2022-11-08T14:47:24.060Z,1.20
2022-11-08T14:49:51.000Z,1.08
2022-11-08T14:52:30.118Z,1.13
2022-11-08T14:55:08.925Z,1.05
2022-11-08T14:57:41.033Z,1.50
2022-11-08T15:00:28.343Z,1.02
2022-11-08T15:03:04.179Z,1.38
2022-11-08T15:05:56.469Z,1.20
2022-11-08T15:08:29.233Z,1.52
2022-11-08T15:11:08.933Z,1.48
2022-11-08T15:13:45.340Z,1.48
2022-11-08T15:16:12.728Z,1.40
2022-11-08T15:18:41.244Z,1.30
2022-11-08T15:21:26.661Z,1.33
2022-11-08T15:23:54.294Z,1.40
2022-11-08T15:26:32.813Z,1.38
2022-11-08T15:29:01.705Z,1.40
2022-11-08T15:31:34.216Z,1.20
2022-11-08T15:34:00.932Z,1.50
2022-11-08T15:36:33.692Z,1.35
2022-11-08T15:39:01.238Z,1.40
2022-11-08T15:41:38.431Z,1.23
2022-11-08T15:44:25.476Z,1.30
2022-11-08T15:46:53.739Z,1.90
2022-11-08T15:49:24.733Z,1.27
2022-11-08T15:51:54.195Z,1.33
2022-11-08T15:54:22.318Z,1.33
2022-11-08T15:56:52.173Z,1.70
2022-11-08T15:59:22.703Z,1.30
2022-11-08T16:02:00.743Z,1.45
2022-11-08T16:04:28.921Z,1.60
2022-11-08T16:06:56.170Z,2.08
2022-11-08T16:09:22.870Z,1.58
2022-11-08T16:11:49.946Z,1.55
2022-11-08T16:14:19.836Z,1.35
2022-11-08T16:16:46.679Z,1.60
2022-11-08T16:19:24.696Z,0.95
2022-11-08T16:21:52.279Z,1.45
2022-11-08T16:24:19.405Z,1.52
2022-11-08T16:26:46.782Z,1.15
2022-11-08T16:29:19.583Z,1.67
2022-11-08T16:31:46.488Z,1.33
2022-11-08T16:34:13.083Z,1.30
2022-11-08T16:36:39.648Z,1.70
2022-11-08T16:39:06.817Z,1.67
2022-11-08T16:41:33.351Z,1.42
2022-11-08T16:44:00.260Z,1.48
2022-11-08T16:46:26.831Z,1.60
2022-11-08T16:48:57.121Z,1.70
2022-11-08T16:51:25.433Z,1.65
2022-11-08T16:53:53.058Z,1.65
2022-11-08T16:56:19.812Z,1.40
2022-11-08T16:58:47.191Z,1.70
2022-11-08T17:01:18.680Z,1.92
2022-11-08T17:03:45.215Z,1.65
2022-11-08T17:06:18.019Z,1.67
2022-11-08T17:08:45.895Z,1.70
2022-11-08T17:11:18.169Z,1.50
2022-11-08T17:13:45.137Z,1.48
2022-11-08T17:16:13.205Z,1.70
2022-11-08T17:18:40.500Z,1.60
2022-11-08T17:21:38.270Z,1.55
2022-11-08T17:23:59.335Z,1.50
2022-11-08T17:26:26.718Z,1.75
2022-11-08T17:28:55.646Z,2.05
2022-11-08T17:31:22.292Z,1.33
2022-11-08T17:33:48.857Z,1.60
2022-11-08T17:36:15.427Z,1.30
2022-11-08T17:38:42.455Z,1.70
2022-11-08T17:41:12.875Z,1.50
2022-11-08T17:43:40.461Z,1.20
2022-11-08T17:46:07.444Z,1.30
2022-11-08T17:48:34.735Z,1.38
2022-11-08T17:51:01.473Z,1.25
2022-11-08T17:53:28.886Z,1.70
2022-11-08T17:56:01.145Z,1.70
2022-11-08T17:58:28.459Z,1.50
2022-11-08T18:00:57.041Z,1.90
2022-11-08T18:03:24.966Z,1.93
2022-11-08T18:05:58.563Z,1.80
2022-11-08T18:08:27.325Z,1.70
2022-11-08T18:10:54.478Z,1.70
2022-11-08T18:13:21.692Z,1.70
2022-11-08T18:15:49.801Z,1.90
2022-11-08T18:18:17.146Z,1.85
2022-11-08T18:20:43.931Z,1.80
2022-11-08T18:23:12.251Z,1.55
2022-11-08T18:25:39.299Z,1.50
2022-11-08T18:28:06.179Z,1.67
2022-11-08T18:30:33.253Z,1.55
2022-11-08T18:32:59.829Z,2.15
2022-11-08T18:35:28.058Z,1.58
2022-11-08T18:37:55.585Z,2.00
2022-11-08T18:40:22.581Z,1.60
2022-11-08T18:42:49.148Z,1.70
2022-11-08T18:45:15.736Z,1.60
2022-11-08T18:47:42.570Z,1.70
2022-11-08T18:50:09.731Z,1.67
2022-11-08T18:52:37.618Z,1.70
2022-11-08T18:55:05.237Z,1.70
2022-11-08T18:57:31.896Z,1.52
2022-11-08T19:00:01.033Z,1.27
2022-11-08T19:02:28.107Z,1.45
2022-11-08T19:04:55.064Z,1.80
2022-11-08T19:07:23.576Z,1.70
2022-11-08T19:09:50.935Z,1.65
2022-11-08T19:12:17.650Z,1.55
2022-11-08T19:14:44.213Z,1.40
2022-11-08T19:17:10.894Z,1.60
2022-11-08T19:19:37.604Z,1.70
2022-11-08T19:22:04.353Z,1.60
2022-11-08T19:24:31.070Z,1.55
2022-11-08T19:26:57.624Z,1.50
2022-11-08T19:29:24.257Z,1.20
2022-11-08T19:31:50.929Z,1.85
2022-11-08T19:34:17.599Z,1.60
2022-11-08T19:36:44.465Z,1.80
2022-11-08T19:39:12.031Z,1.48
2022-11-08T19:41:39.660Z,1.75
2022-11-08T19:44:06.977Z,1.90
2022-11-08T19:46:34.166Z,1.70
2022-11-08T19:49:03.196Z,1.35
2022-11-08T19:51:32.611Z,1.17
2022-11-08T19:54:01.743Z,1.65
2022-11-08T19:56:57.727Z,1.50
2022-11-08T19:59:17.203Z,1.50
2022-11-08T20:01:43.940Z,1.45
2022-11-08T20:04:11.635Z,1.38
2022-11-08T20:06:39.030Z,1.55
2022-11-08T20:09:06.208Z,2.05
2022-11-08T20:11:35.860Z,1.70
2022-11-08T20:14:04.033Z,1.90
2022-11-08T20:16:35.876Z,1.83
2022-11-08T20:19:08.649Z,1.83
2022-11-08T20:21:35.542Z,2.03
2022-11-08T20:24:02.123Z,2.20
2022-11-08T20:26:28.756Z,2.22
2022-11-08T20:28:56.924Z,2.78
2022-11-08T20:31:25.601Z,2.33
2022-11-08T20:33:53.817Z,2.70
2022-11-08T20:36:23.513Z,2.42
2022-11-08T20:41:17.911Z,1.50
2022-11-08T20:43:46.157Z,1.70
2022-11-08T20:46:15.795Z,1.70
2022-11-08T20:51:13.648Z,1.80
2022-11-08T20:53:40.875Z,1.67
2022-11-08T20:56:10.619Z,1.40
2022-11-08T20:58:37.745Z,1.60
2022-11-08T21:01:07.013Z,1.80
2022-11-08T21:03:34.691Z,1.73
2022-11-08T21:06:04.605Z,1.67
2022-11-08T21:13:46.841Z,1.60
2022-11-08T21:16:29.472Z,2.05
2022-11-08T21:18:57.561Z,1.55
2022-11-08T21:21:25.007Z,1.80
2022-11-08T21:23:51.757Z,2.13
2022-11-08T21:26:19.249Z,1.92
2022-11-08T21:28:46.456Z,1.52
2022-11-08T21:31:13.443Z,1.50
2022-11-08T21:33:40.429Z,1.60
2022-11-08T21:36:07.934Z,1.48
2022-11-08T21:38:36.923Z,1.67
2022-11-08T21:41:06.041Z,1.92
2022-11-08T21:43:38.000Z,1.73
2022-11-08T21:46:24.626Z,1.42
2022-11-08T21:48:58.972Z,1.40
2022-11-08T21:51:26.674Z,1.52
2022-11-08T21:53:55.735Z,1.70
2022-11-08T21:56:29.360Z,1.60
2022-11-08T21:58:55.956Z,1.40
2022-11-08T22:01:28.566Z,1.48
2022-11-08T22:03:56.355Z,1.70
2022-11-08T22:06:22.997Z,1.35
2022-11-08T22:08:49.819Z,1.60
2022-11-08T22:11:16.461Z,1.52
2022-11-08T22:13:42.993Z,1.52
2022-11-08T22:16:09.771Z,1.42
2022-11-08T22:19:03.733Z,1.60
2022-11-08T22:21:39.947Z,1.40
2022-11-08T22:24:13.728Z,1.67
2022-11-08T22:26:41.570Z,1.98
2022-11-08T22:29:08.769Z,1.85
2022-11-08T22:31:35.828Z,1.48
2022-11-08T22:34:02.976Z,1.40
2022-11-08T22:36:29.566Z,1.63
2022-11-08T22:38:56.295Z,1.40
2022-11-08T22:41:23.618Z,1.60
2022-11-08T22:43:50.373Z,1.67
2022-11-08T22:46:22.066Z,1.58
2022-11-08T22:48:48.645Z,1.40
2022-11-08T22:51:15.320Z,1.60
2022-11-08T22:53:42.183Z,1.60
2022-11-08T22:56:11.713Z,1.35
2022-11-08T22:58:39.407Z,1.60
2022-11-08T23:01:07.543Z,1.70
2022-11-08T23:03:34.076Z,1.67
2022-11-08T23:06:00.617Z,1.95
2022-11-08T23:08:27.798Z,1.70
2022-11-08T23:11:13.276Z,1.70
2022-11-08T23:13:58.517Z,1.48
2022-11-08T23:16:37.897Z,1.67
2022-11-08T23:19:32.343Z,1.52
2022-11-08T23:22:18.206Z,1.50
2022-11-08T23:24:45.731Z,1.48
2022-11-08T23:27:32.947Z,1.70
2022-11-08T23:30:18.211Z,1.35
2022-11-08T23:32:47.189Z,1.58
2022-11-08T23:35:14.776Z,1.45
2022-11-08T23:37:41.848Z,1.50
2022-11-08T23:40:28.960Z,1.40
2022-11-08T23:43:40.490Z,1.55
2022-11-08T23:46:11.864Z,1.40
2022-11-08T23:48:41.011Z,1.75
2022-11-08T23:51:10.950Z,1.33
2022-11-08T23:53:37.702Z,1.50
2022-11-08T23:56:04.978Z,1.40
2022-11-08T23:58:32.267Z,1.20
